createdAt,value
2023-01-27T00:27:18.168Z,51.43
2023-01-27T00:28:18.173Z,52.16
2023-01-27T00:29:18.161Z,59.81
2023-01-27T00:30:18.159Z,54.07
2023-01-27T00:31:18.227Z,52.30
2023-01-27T00:32:18.133Z,65.71
2023-01-27T00:33:18.978Z,58.25
2023-01-27T00:34:18.132Z,46.15
2023-01-27T00:35:18.110Z,60.21
2023-01-27T00:36:18.107Z,60.77
2023-01-27T00:37:18.091Z,55.10
2023-01-27T00:38:18.085Z,46.81
2023-01-27T00:39:18.085Z,57.00
2023-01-27T00:40:18.076Z,56.35
2023-01-27T00:41:18.061Z,63.39
2023-01-27T00:42:18.075Z,45.01
2023-01-27T00:43:18.044Z,52.37
2023-01-27T00:44:18.040Z,54.90
2023-01-27T00:45:18.039Z,41.14
2023-01-27T00:46:18.027Z,56.49
2023-01-27T00:47:18.011Z,64.04
2023-01-27T00:48:18.012Z,56.22
2023-01-27T00:49:17.997Z,55.44
2023-01-27T00:50:18.001Z,54.16
2023-01-27T00:51:18.017Z,50.73
2023-01-27T00:52:18.035Z,61.85
2023-01-27T00:53:17.966Z,49.78
2023-01-27T00:54:18.003Z,58.11
2023-01-27T00:55:17.957Z,55.66
2023-01-27T00:56:17.944Z,43.12
2023-01-27T00:57:17.946Z,53.92
2023-01-27T00:58:18.487Z,44.63
2023-01-27T00:59:17.915Z,55.40
2023-01-27T01:00:18.443Z,61.32
2023-01-27T01:01:17.908Z,51.64
2023-01-27T01:02:17.911Z,55.80
2023-01-27T01:03:17.897Z,64.26
2023-01-27T01:04:17.877Z,51.49
2023-01-27T01:05:17.868Z,58.03
2023-01-27T01:06:17.870Z,53.11
2023-01-27T01:07:17.852Z,49.26
2023-01-27T01:08:17.846Z,42.20
2023-01-27T01:09:17.832Z,57.04
2023-01-27T01:10:17.832Z,58.21
2023-01-27T01:11:17.829Z,50.97
2023-01-27T01:12:17.814Z,51.82
2023-01-27T01:13:17.806Z,59.57
2023-01-27T01:14:17.814Z,58.67
2023-01-27T01:15:17.799Z,58.65
2023-01-27T01:16:17.906Z,46.77
2023-01-27T01:17:17.773Z,42.71
2023-01-27T01:18:17.777Z,43.13
2023-01-27T01:19:18.486Z,50.01
2023-01-27T01:20:17.762Z,66.68
2023-01-27T01:21:17.786Z,63.16
2023-01-27T01:22:17.742Z,58.91
2023-01-27T01:23:17.746Z,54.84
2023-01-27T01:24:17.786Z,63.55
2023-01-27T01:25:17.732Z,55.58
2023-01-27T01:26:17.716Z,55.62
2023-01-27T01:27:17.697Z,63.49
2023-01-27T01:28:17.694Z,57.69
2023-01-27T01:29:18.679Z,43.81
2023-01-27T01:30:17.694Z,60.93
2023-01-27T01:31:17.752Z,47.55
2023-01-27T01:32:17.657Z,55.86
2023-01-27T01:33:17.661Z,46.39
2023-01-27T01:34:17.655Z,49.83
2023-01-27T01:35:18.636Z,52.41
2023-01-27T01:36:17.629Z,53.99
2023-01-27T01:37:17.623Z,59.71
2023-01-27T01:38:18.723Z,64.82
2023-01-27T01:39:18.702Z,47.88
2023-01-27T01:40:19.500Z,49.08
2023-01-27T01:41:18.685Z,53.87
2023-01-27T01:42:18.682Z,57.25
2023-01-27T01:43:18.687Z,55.76
2023-01-27T01:44:18.660Z,49.26
2023-01-27T01:45:18.655Z,58.71
2023-01-27T01:46:18.828Z,56.02
2023-01-27T01:47:18.661Z,57.80
2023-01-27T01:48:18.627Z,55.74
2023-01-27T01:49:18.631Z,52.69
2023-01-27T01:50:19.578Z,62.74
2023-01-27T01:51:18.640Z,61.16
2023-01-27T01:52:18.608Z,57.71
2023-01-27T01:53:18.585Z,46.51
2023-01-27T01:54:18.579Z,55.79
2023-01-27T01:55:18.609Z,56.57
2023-01-27T01:56:18.568Z,47.14
2023-01-27T01:57:18.596Z,58.20
2023-01-27T01:58:18.552Z,57.27
2023-01-27T01:59:18.546Z,60.16
2023-01-27T02:00:18.533Z,53.47
2023-01-27T02:01:18.548Z,57.55
2023-01-27T02:02:19.750Z,62.07
2023-01-27T02:03:19.065Z,50.84
2023-01-27T02:04:18.511Z,63.44
2023-01-27T02:05:18.507Z,54.76
2023-01-27T02:06:18.491Z,43.15
2023-01-27T02:07:18.482Z,51.68
2023-01-27T02:08:18.470Z,58.98
2023-01-27T02:09:18.461Z,53.98
2023-01-27T02:10:18.456Z,58.78
2023-01-27T02:11:18.447Z,60.37
2023-01-27T02:12:18.445Z,58.53
2023-01-27T02:13:18.438Z,58.60
2023-01-27T02:14:18.442Z,63.53
2023-01-27T02:15:18.462Z,56.39
2023-01-27T02:16:18.498Z,51.44
2023-01-27T02:17:18.412Z,50.63
2023-01-27T02:18:18.412Z,62.82
2023-01-27T02:19:18.388Z,51.18
2023-01-27T02:20:18.400Z,54.87
2023-01-27T02:21:18.372Z,51.26
2023-01-27T02:22:18.419Z,65.68
2023-01-27T02:23:18.369Z,49.41
2023-01-27T02:24:18.382Z,42.26
2023-01-27T02:25:18.339Z,42.49
2023-01-27T02:26:18.343Z,49.75
2023-01-27T02:27:18.341Z,46.47
2023-01-27T02:28:18.336Z,47.31
2023-01-27T02:29:18.324Z,68.65
2023-01-27T02:30:18.299Z,61.29
2023-01-27T02:31:18.400Z,62.75
2023-01-27T02:32:18.289Z,43.15
2023-01-27T02:33:18.296Z,57.12
2023-01-27T02:34:18.284Z,44.41
2023-01-27T02:35:18.272Z,57.35
2023-01-27T02:36:18.289Z,56.97
2023-01-27T02:37:18.291Z,45.88
2023-01-27T02:38:18.239Z,57.56
2023-01-27T02:39:18.252Z,46.88
2023-01-27T02:40:18.240Z,52.55
2023-01-27T02:41:18.225Z,45.08
2023-01-27T02:42:18.215Z,55.15
2023-01-27T02:43:18.199Z,43.84
2023-01-27T02:44:18.198Z,55.89
2023-01-27T02:45:18.246Z,44.87
2023-01-27T02:46:18.228Z,49.38
2023-01-27T02:47:18.165Z,56.30
2023-01-27T02:48:18.170Z,59.51
2023-01-27T02:49:18.167Z,41.58
2023-01-27T02:50:18.226Z,43.77
2023-01-27T02:51:18.145Z,48.71
2023-01-27T02:52:18.128Z,50.80
2023-01-27T02:53:18.121Z,51.91
2023-01-27T02:54:19.117Z,58.39
2023-01-27T02:55:18.114Z,55.58
2023-01-27T02:56:20.087Z,53.38
2023-01-27T02:57:18.095Z,58.76
2023-01-27T02:58:18.085Z,50.42
2023-01-27T02:59:18.086Z,58.87
2023-01-27T03:00:19.068Z,59.22
2023-01-27T03:01:18.122Z,44.57
2023-01-27T03:02:18.100Z,43.92
2023-01-27T03:03:18.042Z,46.81
2023-01-27T03:04:18.047Z,53.44
2023-01-27T03:05:18.031Z,51.40
2023-01-27T03:06:18.028Z,51.83
2023-01-27T03:07:18.016Z,45.87
2023-01-27T03:08:18.020Z,62.13
2023-01-27T03:09:18.010Z,53.00
2023-01-27T03:10:18.987Z,55.90
2023-01-27T03:11:18.002Z,42.59
2023-01-27T03:12:17.980Z,58.08
2023-01-27T03:13:17.973Z,52.99
2023-01-27T03:14:18.101Z,50.20
2023-01-27T03:15:17.966Z,42.48
2023-01-27T03:16:17.956Z,67.08
2023-01-27T03:17:17.951Z,49.98
2023-01-27T03:18:17.941Z,57.44
2023-01-27T03:19:18.502Z,57.36
2023-01-27T03:20:17.917Z,52.72
2023-01-27T03:21:17.909Z,54.86
2023-01-27T03:22:17.904Z,49.88
2023-01-27T03:23:17.902Z,56.91
2023-01-27T03:24:17.915Z,54.40
2023-01-27T03:25:19.496Z,55.14
2023-01-27T03:26:17.875Z,54.46
2023-01-27T03:27:17.856Z,55.57
2023-01-27T03:28:17.880Z,55.86
2023-01-27T03:29:17.839Z,50.85
2023-01-27T03:30:17.838Z,58.91
2023-01-27T03:31:17.940Z,54.21
2023-01-27T03:32:17.816Z,62.31
2023-01-27T03:33:17.816Z,54.30
2023-01-27T03:34:17.802Z,56.62
2023-01-27T03:35:17.808Z,48.26
2023-01-27T03:36:17.790Z,55.27
2023-01-27T03:37:17.778Z,50.62
2023-01-27T03:38:17.797Z,48.48
2023-01-27T03:39:17.799Z,58.46
2023-01-27T03:40:17.776Z,46.88
2023-01-27T03:41:17.743Z,56.56
2023-01-27T03:42:17.751Z,62.84
2023-01-27T03:43:19.590Z,54.68
2023-01-27T03:44:17.739Z,55.31
2023-01-27T03:45:17.723Z,63.68
2023-01-27T03:46:17.750Z,58.38
2023-01-27T03:47:17.710Z,51.11
2023-01-27T03:48:17.708Z,61.24
2023-01-27T03:49:17.686Z,60.88
2023-01-27T03:50:17.673Z,57.83
2023-01-27T03:51:17.701Z,58.08
2023-01-27T03:52:17.667Z,55.60
2023-01-27T03:53:17.658Z,58.66
2023-01-27T03:54:18.611Z,60.85
2023-01-27T03:55:17.644Z,62.74
2023-01-27T03:56:17.657Z,60.55
2023-01-27T03:57:17.630Z,60.35
2023-01-27T03:58:17.620Z,65.99
2023-01-27T03:59:17.612Z,51.72
2023-01-27T04:00:17.603Z,61.54
2023-01-27T04:01:17.645Z,62.18
2023-01-27T04:02:17.594Z,58.92
2023-01-27T04:03:17.575Z,60.57
2023-01-27T04:04:17.576Z,48.57
2023-01-27T04:05:17.554Z,61.12
2023-01-27T04:06:18.556Z,59.17
2023-01-27T04:07:17.568Z,56.27
2023-01-27T04:08:17.553Z,57.38
2023-01-27T04:09:17.522Z,61.38
2023-01-27T04:10:17.548Z,57.93
2023-01-27T04:11:17.515Z,62.39
2023-01-27T04:12:17.502Z,67.05
2023-01-27T04:13:17.516Z,60.57
2023-01-27T04:14:17.480Z,60.67
2023-01-27T04:15:17.495Z,63.25
2023-01-27T04:16:17.467Z,54.75
2023-01-27T04:17:17.465Z,58.29
2023-01-27T04:18:17.455Z,64.08
2023-01-27T04:19:17.448Z,64.80
2023-01-27T04:20:17.448Z,65.93
2023-01-27T04:21:17.444Z,67.88
2023-01-27T04:24:24.353Z,59.29
2023-01-27T04:25:24.273Z,64.67
2023-01-27T04:26:24.256Z,64.10
2023-01-27T04:27:24.257Z,62.73
2023-01-27T04:28:41.695Z,59.77
2023-01-27T04:29:25.250Z,65.83
2023-01-27T04:30:24.231Z,57.31
2023-01-27T04:31:24.225Z,61.31
2023-01-27T04:32:24.218Z,60.88
2023-01-27T04:33:25.135Z,68.32
2023-01-27T04:34:25.296Z,65.38
2023-01-27T04:35:27.891Z,66.84
2023-01-27T04:36:27.278Z,63.33
2023-01-27T04:37:25.273Z,62.83
2023-01-27T04:38:25.282Z,67.57
2023-01-27T04:39:25.247Z,67.40
2023-01-27T04:40:25.246Z,61.56
2023-01-27T04:41:25.241Z,57.75
2023-01-27T04:42:25.223Z,63.27
2023-01-27T04:43:25.221Z,61.06
2023-01-27T04:44:26.140Z,62.57
2023-01-27T04:45:25.247Z,63.72
2023-01-27T04:46:25.208Z,61.46
2023-01-27T04:47:25.183Z,62.51
2023-01-27T04:48:25.177Z,66.16
2023-01-27T04:49:25.196Z,64.75
2023-01-27T04:50:25.173Z,67.35
2023-01-27T04:51:25.153Z,66.55
2023-01-27T04:52:25.147Z,66.85
2023-01-27T04:53:25.141Z,67.36
2023-01-27T04:54:25.129Z,68.22
2023-01-27T04:55:25.134Z,62.97
2023-01-27T04:56:25.115Z,63.03
2023-01-27T04:57:25.114Z,66.68
2023-01-27T04:58:25.663Z,63.76
2023-01-27T04:59:25.102Z,66.82
2023-01-27T05:00:25.741Z,65.64
2023-01-27T05:01:25.075Z,64.47
2023-01-27T05:02:25.078Z,63.41
2023-01-27T05:03:25.070Z,65.90
2023-01-27T05:04:25.047Z,67.76
2023-01-27T05:05:25.048Z,65.61
2023-01-27T05:06:25.083Z,62.00
2023-01-27T05:07:25.036Z,63.16
2023-01-27T05:08:25.029Z,67.07
2023-01-27T05:09:25.029Z,63.59
2023-01-27T05:10:25.007Z,63.79
2023-01-27T05:11:25.726Z,64.66
2023-01-27T05:12:24.995Z,62.92
2023-01-27T05:13:25.008Z,66.25
2023-01-27T05:14:25.003Z,64.41
2023-01-27T05:15:24.967Z,65.11
2023-01-27T05:16:25.006Z,68.12
2023-01-27T05:17:24.948Z,65.13
2023-01-27T05:18:24.947Z,68.87
2023-01-27T05:19:24.933Z,64.99
2023-01-27T05:20:24.937Z,67.16
2023-01-27T05:21:24.928Z,66.12
2023-01-27T05:22:24.942Z,63.35
2023-01-27T05:23:24.904Z,65.33
2023-01-27T05:24:24.935Z,66.85
2023-01-27T05:25:24.897Z,64.15
2023-01-27T05:26:24.913Z,65.61
2023-01-27T05:27:24.887Z,68.43
2023-01-27T05:28:24.861Z,65.99
2023-01-27T05:29:24.873Z,64.27
2023-01-27T05:30:24.847Z,66.17
2023-01-27T05:31:24.896Z,66.87
2023-01-27T05:32:24.831Z,66.98
2023-01-27T05:33:26.720Z,66.04
2023-01-27T05:34:25.170Z,66.06
2023-01-27T05:35:25.720Z,64.25
2023-01-27T05:36:24.835Z,66.04
2023-01-27T05:37:25.724Z,68.22
2023-01-27T05:38:26.723Z,67.75
2023-01-27T05:39:24.781Z,64.18
2023-01-27T05:40:24.780Z,64.11
2023-01-27T05:41:24.756Z,61.96
2023-01-27T05:42:26.728Z,66.05
2023-01-27T05:43:24.737Z,64.74
2023-01-27T05:44:25.708Z,66.32
2023-01-27T05:45:24.739Z,65.78
2023-01-27T05:46:24.737Z,65.67
2023-01-27T05:47:24.732Z,67.13
2023-01-27T05:48:24.708Z,67.18
2023-01-27T05:49:24.733Z,65.82
2023-01-27T05:50:24.742Z,69.58
2023-01-27T05:51:24.704Z,67.34
2023-01-27T05:52:24.680Z,66.61
2023-01-27T05:53:25.672Z,64.55
2023-01-27T05:54:25.243Z,66.88
2023-01-27T05:55:24.685Z,66.49
2023-01-27T05:56:24.649Z,68.45
2023-01-27T05:57:24.631Z,63.25
2023-01-27T05:58:24.634Z,63.65
2023-01-27T05:59:24.633Z,66.90
2023-01-27T06:00:24.611Z,69.38
2023-01-27T06:01:25.160Z,66.07
2023-01-27T06:02:24.602Z,72.97
2023-01-27T06:03:24.591Z,69.78
2023-01-27T06:04:24.590Z,68.02
2023-01-27T06:05:24.605Z,68.55
2023-01-27T06:06:24.572Z,64.91
2023-01-27T06:07:24.565Z,65.97
2023-01-27T06:08:24.566Z,68.80
2023-01-27T06:09:25.168Z,65.17
2023-01-27T06:10:24.591Z,66.26
2023-01-27T06:11:24.541Z,65.62
2023-01-27T06:12:24.513Z,68.37
2023-01-27T06:13:24.520Z,69.28
2023-01-27T06:14:24.536Z,66.60
2023-01-27T06:15:24.500Z,68.53
2023-01-27T06:16:24.546Z,65.45
2023-01-27T06:19:31.858Z,68.32
2023-01-27T06:20:32.615Z,69.85
2023-01-27T06:21:31.851Z,71.25
2023-01-27T06:22:31.838Z,71.04
2023-01-27T06:23:33.747Z,70.30
2023-01-27T06:24:31.886Z,68.92
2023-01-27T06:25:31.888Z,67.53
2023-01-27T06:26:33.627Z,66.64
2023-01-27T06:27:31.811Z,70.31
2023-01-27T06:28:33.621Z,70.39
2023-01-27T06:29:31.787Z,69.06
2023-01-27T06:30:32.780Z,67.48
2023-01-27T06:31:31.842Z,69.78
2023-01-27T06:32:31.771Z,70.06
2023-01-27T06:33:31.767Z,70.03
2023-01-27T06:34:32.627Z,67.49
2023-01-27T06:35:31.723Z,68.55
2023-01-27T06:36:32.726Z,68.96
2023-01-27T06:37:33.632Z,68.21
2023-01-27T06:38:31.730Z,70.48
2023-01-27T06:39:31.703Z,69.78
2023-01-27T06:40:31.753Z,67.85
2023-01-27T06:41:31.691Z,68.12
2023-01-27T06:42:31.676Z,69.75
2023-01-27T06:43:31.675Z,69.81
2023-01-27T06:44:31.682Z,68.58
2023-01-27T06:45:32.653Z,68.28
2023-01-27T06:46:31.788Z,68.72
2023-01-27T06:47:31.639Z,68.20
2023-01-27T06:48:31.708Z,67.55
2023-01-27T06:49:31.626Z,68.46
2023-01-27T06:50:31.667Z,69.10
2023-01-27T06:51:31.613Z,68.94
2023-01-27T06:52:31.603Z,68.72
2023-01-27T06:53:31.609Z,70.35
2023-01-27T06:54:31.599Z,69.25
2023-01-27T06:55:31.609Z,67.65
2023-01-27T06:56:32.819Z,69.47
2023-01-27T06:57:31.644Z,67.43
2023-01-27T06:58:38.228Z,70.11
2023-01-27T06:59:31.552Z,67.20
2023-01-27T07:00:31.555Z,67.01
2023-01-27T07:01:31.576Z,68.15
2023-01-27T07:02:31.588Z,70.31
2023-01-27T07:03:31.510Z,67.67
2023-01-27T07:04:31.505Z,68.66
2023-01-27T07:05:31.500Z,68.84
2023-01-27T07:06:31.504Z,69.13
2023-01-27T07:07:31.491Z,68.81
2023-01-27T07:08:31.496Z,68.33
2023-01-27T07:09:37.525Z,67.22
2023-01-27T07:10:33.470Z,67.02
2023-01-27T07:11:31.474Z,66.33
2023-01-27T07:12:31.456Z,64.17
2023-01-27T07:13:31.444Z,68.33
2023-01-27T07:14:31.502Z,68.06
2023-01-27T07:15:31.431Z,68.36
2023-01-27T07:16:33.271Z,66.76
2023-01-27T07:17:31.417Z,68.39
2023-01-27T07:18:31.447Z,66.37
2023-01-27T07:19:31.405Z,66.87
2023-01-27T07:20:31.391Z,68.52
2023-01-27T07:21:31.397Z,68.05
2023-01-27T07:22:31.427Z,67.96
2023-01-27T07:23:31.374Z,66.56
2023-01-27T07:24:31.352Z,65.63
2023-01-27T07:25:31.355Z,66.26
2023-01-27T07:26:31.344Z,67.87
2023-01-27T07:27:32.230Z,67.18
2023-01-27T07:28:31.366Z,66.62
2023-01-27T07:29:31.341Z,66.22
2023-01-27T07:30:31.317Z,66.96
2023-01-27T07:31:31.387Z,70.91
2023-01-27T07:32:31.319Z,67.36
2023-01-27T07:33:31.305Z,68.38
2023-01-27T07:34:31.289Z,67.45
2023-01-27T07:35:31.281Z,68.85
2023-01-27T07:36:31.278Z,68.52
2023-01-27T07:37:31.262Z,68.32
2023-01-27T07:38:31.278Z,68.11
2023-01-27T07:39:32.134Z,66.57
2023-01-27T07:40:31.236Z,66.44
2023-01-27T07:41:31.226Z,65.67
2023-01-27T07:42:31.215Z,65.24
2023-01-27T07:43:31.215Z,67.86
2023-01-27T07:44:31.195Z,66.80
2023-01-27T07:45:31.333Z,67.65
2023-01-27T07:46:31.182Z,66.21
2023-01-27T07:47:31.178Z,66.89
2023-01-27T07:48:31.173Z,67.62
2023-01-27T07:49:31.225Z,65.77
2023-01-27T07:50:31.196Z,70.50
2023-01-27T07:51:31.157Z,68.94
2023-01-27T07:52:31.139Z,67.27
2023-01-27T07:53:31.147Z,69.17
2023-01-27T07:54:31.137Z,69.88
2023-01-27T07:55:31.119Z,67.73
2023-01-27T07:56:31.111Z,70.62
2023-01-27T07:57:31.109Z,70.35
2023-01-27T07:58:32.674Z,65.79
2023-01-27T07:59:31.265Z,67.23
2023-01-27T08:00:31.122Z,67.45
2023-01-27T08:01:31.077Z,68.37
2023-01-27T08:02:31.232Z,68.81
2023-01-27T08:03:31.073Z,70.44
2023-01-27T08:04:35.208Z,66.38
2023-01-27T08:05:33.062Z,67.65
2023-01-27T08:06:31.079Z,66.58
2023-01-27T08:07:31.035Z,67.38
2023-01-27T08:08:31.103Z,68.47
2023-01-27T08:09:31.004Z,67.45
2023-01-27T08:10:31.017Z,65.35
2023-01-27T08:11:31.004Z,67.07
2023-01-27T08:12:31.040Z,68.64
2023-01-27T08:13:31.024Z,65.45
2023-01-27T08:14:30.969Z,66.88
2023-01-27T08:15:30.988Z,65.29
2023-01-27T08:16:32.819Z,68.10
2023-01-27T08:17:30.944Z,65.96
2023-01-27T08:18:30.941Z,69.13
2023-01-27T08:19:32.632Z,70.34
2023-01-27T08:20:30.930Z,68.69
2023-01-27T08:21:30.918Z,70.38
2023-01-27T08:22:30.907Z,69.97
2023-01-27T08:23:30.910Z,68.53
2023-01-27T08:24:30.941Z,68.48
2023-01-27T08:25:30.893Z,66.78
2023-01-27T08:26:31.649Z,65.31
2023-01-27T08:27:30.890Z,67.91
2023-01-27T08:28:30.883Z,67.58
2023-01-27T08:29:30.880Z,68.91
2023-01-27T08:30:30.902Z,70.23
2023-01-27T08:31:30.933Z,69.63
2023-01-27T08:32:30.845Z,68.47
2023-01-27T08:33:30.868Z,69.30
2023-01-27T08:34:30.826Z,67.64
2023-01-27T08:35:30.816Z,66.42
2023-01-27T08:36:30.806Z,68.64
2023-01-27T08:37:30.868Z,69.65
2023-01-27T08:38:30.801Z,69.17
2023-01-27T08:39:30.787Z,68.45
2023-01-27T08:40:31.764Z,68.51
2023-01-27T08:41:30.778Z,67.41
2023-01-27T08:42:30.755Z,68.25
2023-01-27T08:43:31.776Z,69.19
2023-01-27T08:44:30.759Z,65.87
2023-01-27T08:45:30.738Z,66.59
2023-01-27T08:46:30.737Z,66.46
2023-01-27T08:47:30.728Z,66.50
2023-01-27T08:48:30.720Z,65.08
2023-01-27T08:49:30.714Z,65.83
2023-01-27T08:50:30.763Z,68.28
2023-01-27T08:51:30.698Z,68.97
2023-01-27T08:52:30.709Z,67.96
2023-01-27T08:53:30.697Z,65.35
2023-01-27T08:54:32.395Z,69.36
2023-01-27T08:55:30.681Z,68.28
2023-01-27T08:56:31.660Z,67.31
2023-01-27T21:26:16.156Z,61.49
2023-01-27T21:27:17.985Z,64.85
2023-01-27T21:28:16.145Z,60.47
2023-01-27T21:29:16.141Z,65.39
2023-01-27T21:30:16.135Z,68.28
2023-01-27T21:31:16.223Z,68.15
2023-01-27T21:32:17.208Z,63.44
2023-01-27T21:33:17.207Z,66.54
2023-01-27T21:34:17.190Z,64.50
2023-01-27T21:35:17.209Z,67.93
2023-01-27T21:36:17.189Z,64.03
2023-01-27T21:37:17.168Z,64.30
2023-01-27T21:38:17.170Z,62.74
2023-01-27T21:39:17.158Z,67.91
2023-01-27T21:40:17.146Z,64.37
2023-01-27T21:41:17.151Z,55.16
2023-01-27T21:42:17.134Z,63.56
2023-01-27T21:43:17.129Z,62.10
2023-01-27T21:44:17.119Z,65.61
2023-01-27T21:45:17.571Z,64.54
2023-01-27T21:46:17.155Z,66.78
2023-01-27T21:47:17.127Z,65.39
2023-01-27T21:48:17.095Z,63.46
2023-01-27T21:49:17.077Z,65.41
2023-01-27T21:50:17.075Z,63.59
2023-01-27T21:51:17.068Z,64.05
2023-01-27T21:52:17.075Z,64.61
2023-01-27T21:53:17.056Z,62.39
2023-01-27T21:54:17.056Z,68.45
2023-01-27T21:55:17.468Z,65.23
2023-01-27T21:56:17.031Z,62.94
2023-01-27T21:57:17.024Z,62.03
2023-01-27T21:58:17.034Z,61.04
2023-01-27T21:59:17.003Z,64.48
2023-01-27T22:00:17.005Z,61.51
2023-01-27T22:01:17.012Z,62.20
2023-01-27T22:02:16.983Z,64.95
2023-01-27T22:03:16.976Z,68.12
2023-01-27T22:04:17.011Z,59.14
2023-01-27T22:05:17.424Z,61.59
2023-01-27T22:06:17.052Z,61.84
2023-01-27T22:07:16.977Z,62.24
2023-01-27T22:08:16.930Z,61.60
2023-01-27T22:09:16.919Z,64.66
2023-01-27T22:10:16.932Z,63.53
2023-01-27T22:11:17.583Z,62.84
2023-01-27T22:12:18.561Z,62.24
2023-01-27T22:13:16.896Z,62.26
2023-01-27T22:14:17.478Z,65.30
2023-01-27T22:15:17.165Z,64.36
2023-01-27T22:16:16.906Z,60.39
2023-01-27T22:17:18.978Z,62.21
2023-01-27T22:18:16.894Z,65.48
2023-01-27T22:19:16.845Z,60.98
2023-01-27T22:20:16.837Z,62.55
2023-01-27T22:21:16.830Z,60.11
2023-01-27T22:22:16.824Z,66.54
2023-01-27T22:23:16.813Z,62.01
2023-01-27T22:24:17.494Z,63.21
2023-01-27T22:25:17.306Z,60.99
2023-01-27T22:26:16.788Z,64.91
2023-01-27T22:27:16.799Z,65.54
2023-01-27T22:28:16.786Z,66.92
2023-01-27T22:31:23.541Z,64.64
2023-01-27T22:32:24.686Z,67.61
2023-01-27T22:33:24.611Z,67.16
2023-01-27T22:34:24.604Z,66.87
2023-01-27T22:35:24.609Z,64.29
2023-01-27T22:36:24.599Z,66.10
2023-01-27T22:37:24.589Z,63.20
2023-01-27T22:38:24.573Z,65.26
2023-01-27T22:39:25.495Z,62.94
2023-01-27T22:40:24.557Z,65.71
2023-01-27T22:41:25.484Z,63.29
2023-01-27T22:42:24.571Z,65.22
2023-01-27T22:43:24.533Z,59.39
2023-01-27T22:44:24.522Z,58.51
2023-01-27T22:45:24.576Z,60.82
2023-01-27T22:46:24.528Z,60.49
2023-01-27T22:47:24.500Z,60.30
2023-01-27T22:48:24.509Z,62.64
2023-01-27T22:49:24.487Z,63.02
2023-01-27T22:50:25.425Z,60.74
2023-01-27T22:51:24.988Z,65.43
2023-01-27T22:52:24.463Z,72.35
2023-01-27T22:53:24.462Z,67.82
2023-01-27T22:54:24.445Z,64.64
2023-01-27T22:55:24.436Z,62.83
2023-01-27T22:56:24.442Z,59.46
2023-01-27T22:57:24.422Z,64.48
2023-01-27T22:58:24.409Z,59.18
2023-01-27T22:59:24.410Z,65.45
2023-01-27T23:00:24.400Z,65.05
2023-01-27T23:01:24.507Z,59.39
2023-01-27T23:02:24.394Z,63.06
2023-01-27T23:03:24.374Z,58.57
2023-01-27T23:04:24.387Z,59.18
2023-01-27T23:05:24.357Z,62.56
2023-01-27T23:06:25.418Z,63.94
2023-01-27T23:07:24.351Z,62.23
2023-01-27T23:08:24.333Z,60.54
2023-01-27T23:09:24.324Z,63.45
2023-01-27T23:10:24.321Z,64.03
2023-01-27T23:11:24.341Z,65.21
2023-01-27T23:12:24.305Z,62.46
2023-01-27T23:13:24.292Z,61.17
2023-01-27T23:14:24.287Z,61.91
2023-01-27T23:15:24.283Z,59.70
2023-01-27T23:16:25.367Z,60.82
2023-01-27T23:17:24.287Z,63.31
2023-01-27T23:18:24.256Z,61.49
2023-01-27T23:19:24.267Z,58.18
2023-01-27T23:20:24.254Z,54.44
2023-01-27T23:21:24.244Z,58.04
2023-01-27T23:22:24.230Z,57.82
2023-01-27T23:23:25.235Z,62.33
2023-01-27T23:24:24.234Z,63.73
2023-01-27T23:25:24.231Z,62.68
2023-01-27T23:26:24.916Z,61.77
2023-01-27T23:27:24.223Z,58.77
2023-01-27T23:28:24.205Z,57.40
2023-01-27T23:29:25.822Z,60.61
2023-01-27T23:30:25.185Z,61.62
2023-01-27T23:31:24.433Z,62.41
2023-01-27T23:32:25.010Z,59.32
2023-01-27T23:33:24.229Z,60.65
2023-01-27T23:34:24.136Z,62.83
2023-01-27T23:35:24.146Z,63.96
2023-01-27T23:36:24.139Z,66.47
2023-01-27T23:39:31.283Z,62.13
2023-01-27T23:40:31.265Z,62.74
2023-01-27T23:41:31.254Z,62.40
2023-01-27T23:42:31.246Z,66.30
2023-01-27T23:43:31.252Z,63.83
2023-01-27T23:44:31.241Z,65.73
2023-01-27T23:45:31.228Z,61.36
2023-01-27T23:46:31.333Z,64.45
2023-01-27T23:47:31.222Z,61.93
2023-01-27T23:48:31.206Z,61.33
2023-01-27T23:49:31.210Z,63.71
2023-01-27T23:50:31.187Z,60.74
2023-01-27T23:51:31.178Z,62.49
2023-01-27T23:52:31.176Z,61.14
2023-01-27T23:53:31.160Z,61.04
2023-01-27T23:54:31.151Z,62.23
2023-01-27T23:55:31.157Z,60.34
2023-01-27T23:56:31.141Z,60.49
2023-01-27T23:57:31.141Z,60.56
2023-01-27T23:58:31.123Z,57.92
2023-01-27T23:59:31.135Z,59.64
